sensor_id;sensor_type;location;lat;lon;timestamp;pressure;altitude;pressure_sealevel;temperature;humidity
57943;BME280;53626;51.224;-0.164;2022-08-11T00:00:32;101574.61;;;24.48;44.12
57943;BME280;53626;51.224;-0.164;2022-08-11T00:03:05;101573.14;;;24.27;44.14
57943;BME280;53626;51.224;-0.164;2022-08-11T00:05:43;101571.84;;;24.25;44.16
57943;BME280;53626;51.224;-0.164;2022-08-11T00:08:20;101567.28;;;24.02;44.19
57943;BME280;53626;51.224;-0.164;2022-08-11T00:10:52;101567.98;;;24.23;44.23
57943;BME280;53626;51.224;-0.164;2022-08-11T00:13:20;101564.89;;;24.46;44.21
57943;BME280;53626;51.224;-0.164;2022-08-11T00:15:48;101564.63;;;24.24;44.23
57943;BME280;53626;51.224;-0.164;2022-08-11T00:18:17;101560.99;;;24.05;44.20
57943;BME280;53626;51.224;-0.164;2022-08-11T00:20:44;101563.05;;;24.23;44.26
57943;BME280;53626;51.224;-0.164;2022-08-11T00:23:14;101562.88;;;24.01;44.27
57943;BME280;53626;51.224;-0.164;2022-08-11T00:25:44;101557.92;;;23.99;44.32
57943;BME280;53626;51.224;-0.164;2022-08-11T00:28:29;101556.90;;;23.98;44.33
57943;BME280;53626;51.224;-0.164;2022-08-11T00:30:59;101554.35;;;24.01;44.31
57943;BME280;53626;51.224;-0.164;2022-08-11T00:33:36;101558.19;;;24.01;44.30
57943;BME280;53626;51.224;-0.164;2022-08-11T00:36:05;101556.99;;;24.43;44.34
57943;BME280;53626;51.224;-0.164;2022-08-11T00:38:38;101554.31;;;23.97;44.38
57943;BME280;53626;51.224;-0.164;2022-08-11T00:41:17;101554.62;;;23.99;44.34
57943;BME280;53626;51.224;-0.164;2022-08-11T00:44:03;101551.52;;;24.03;44.32
57943;BME280;53626;51.224;-0.164;2022-08-11T00:46:41;101552.39;;;24.26;44.33
57943;BME280;53626;51.224;-0.164;2022-08-11T00:49:27;101547.30;;;24.00;44.36
57943;BME280;53626;51.224;-0.164;2022-08-11T00:52:07;101545.37;;;24.02;44.35
57943;BME280;53626;51.224;-0.164;2022-08-11T00:55:09;101545.68;;;24.22;44.37
57943;BME280;53626;51.224;-0.164;2022-08-11T01:00:11;101547.47;;;24.22;44.38
57943;BME280;53626;51.224;-0.164;2022-08-11T01:02:55;101543.49;;;24.00;44.41
57943;BME280;53626;51.224;-0.164;2022-08-11T01:06:19;101545.56;;;24.00;44.40
57943;BME280;53626;51.224;-0.164;2022-08-11T01:09:13;101545.06;;;24.05;44.36
57943;BME280;53626;51.224;-0.164;2022-08-11T01:12:03;101541.04;;;24.31;44.30
57943;BME280;53626;51.224;-0.164;2022-08-11T01:15:50;101538.15;;;24.07;44.32
57943;BME280;53626;51.224;-0.164;2022-08-11T01:19:29;101531.56;;;23.84;44.28
57943;BME280;53626;51.224;-0.164;2022-08-11T01:22:29;101530.51;;;24.06;44.34
57943;BME280;53626;51.224;-0.164;2022-08-11T01:26:08;101528.06;;;24.06;44.35
57943;BME280;53626;51.224;-0.164;2022-08-11T01:36:10;101520.40;;;24.06;44.72
57943;BME280;53626;51.224;-0.164;2022-08-11T01:39:11;101522.59;;;24.06;44.41
57943;BME280;53626;51.224;-0.164;2022-08-11T01:41:59;101523.36;;;24.08;44.37
57943;BME280;53626;51.224;-0.164;2022-08-11T01:45:01;101523.61;;;24.07;44.40
57943;BME280;53626;51.224;-0.164;2022-08-11T01:47:36;101524.73;;;24.06;44.39
57943;BME280;53626;51.224;-0.164;2022-08-11T01:50:12;101522.65;;;24.04;44.44
57943;BME280;53626;51.224;-0.164;2022-08-11T01:52:54;101525.41;;;24.01;44.50
57943;BME280;53626;51.224;-0.164;2022-08-11T01:55:36;101526.04;;;24.25;44.49
57943;BME280;53626;51.224;-0.164;2022-08-11T01:58:13;101526.03;;;24.05;44.50
57943;BME280;53626;51.224;-0.164;2022-08-11T02:00:51;101523.06;;;24.04;44.49
57943;BME280;53626;51.224;-0.164;2022-08-11T02:03:28;101521.24;;;24.01;44.53
57943;BME280;53626;51.224;-0.164;2022-08-11T02:06:08;101523.50;;;24.01;44.54
57943;BME280;53626;51.224;-0.164;2022-08-11T02:08:44;101525.51;;;23.98;44.59
57943;BME280;53626;51.224;-0.164;2022-08-11T02:11:21;101525.71;;;24.21;44.61
57943;BME280;53626;51.224;-0.164;2022-08-11T02:13:58;101522.74;;;24.00;44.58
57943;BME280;53626;51.224;-0.164;2022-08-11T02:16:47;101524.05;;;24.00;44.61
57943;BME280;53626;51.224;-0.164;2022-08-11T02:19:24;101519.47;;;24.02;44.57
57943;BME280;53626;51.224;-0.164;2022-08-11T02:21:59;101518.75;;;24.22;44.60
57943;BME280;53626;51.224;-0.164;2022-08-11T02:24:34;101518.20;;;24.01;44.59
57943;BME280;53626;51.224;-0.164;2022-08-11T02:27:07;101514.30;;;24.00;44.60
57943;BME280;53626;51.224;-0.164;2022-08-11T02:29:48;101516.06;;;24.00;44.65
57943;BME280;53626;51.224;-0.164;2022-08-11T02:32:20;101512.73;;;24.45;44.62
57943;BME280;53626;51.224;-0.164;2022-08-11T02:34:55;101508.20;;;23.98;44.66
57943;BME280;53626;51.224;-0.164;2022-08-11T02:37:35;101505.19;;;24.19;44.70
57943;BME280;53626;51.224;-0.164;2022-08-11T02:40:15;101504.29;;;23.98;44.71
57943;BME280;53626;51.224;-0.164;2022-08-11T02:43:08;101504.49;;;23.99;44.67
57943;BME280;53626;51.224;-0.164;2022-08-11T02:45:47;101500.20;;;23.98;44.71
57943;BME280;53626;51.224;-0.164;2022-08-11T02:48:35;101499.95;;;23.99;44.69
57943;BME280;53626;51.224;-0.164;2022-08-11T02:51:13;101499.70;;;24.02;44.68
57943;BME280;53626;51.224;-0.164;2022-08-11T02:53:46;101501.32;;;24.00;44.72
57943;BME280;53626;51.224;-0.164;2022-08-11T02:56:23;101500.88;;;23.99;44.73
57943;BME280;53626;51.224;-0.164;2022-08-11T02:59:00;101498.46;;;23.98;44.74
57943;BME280;53626;51.224;-0.164;2022-08-11T03:01:40;101498.20;;;24.01;44.71
57943;BME280;53626;51.224;-0.164;2022-08-11T03:04:20;101491.70;;;23.97;44.78
57943;BME280;53626;51.224;-0.164;2022-08-11T03:06:51;101486.69;;;23.94;44.82
57943;BME280;53626;51.224;-0.164;2022-08-11T03:09:39;101484.71;;;23.94;44.82
57943;BME280;53626;51.224;-0.164;2022-08-11T03:12:12;101485.54;;;23.67;44.83
57943;BME280;53626;51.224;-0.164;2022-08-11T03:14:48;101483.37;;;23.94;44.82
57943;BME280;53626;51.224;-0.164;2022-08-11T03:17:27;101483.87;;;23.93;44.87
57943;BME280;53626;51.224;-0.164;2022-08-11T03:20:07;101486.20;;;24.01;44.76
57943;BME280;53626;51.224;-0.164;2022-08-11T03:22:49;101487.75;;;24.43;44.78
57943;BME280;53626;51.224;-0.164;2022-08-11T03:25:26;101488.73;;;24.18;44.82
57943;BME280;53626;51.224;-0.164;2022-08-11T03:28:01;101488.19;;;23.98;44.84
57943;BME280;53626;51.224;-0.164;2022-08-11T03:30:41;101488.18;;;23.96;44.84
57943;BME280;53626;51.224;-0.164;2022-08-11T03:33:20;101488.74;;;23.92;44.89
57943;BME280;53626;51.224;-0.164;2022-08-11T03:36:00;101487.68;;;24.17;44.89
57943;BME280;53626;51.224;-0.164;2022-08-11T03:38:44;101484.89;;;24.20;44.84
57943;BME280;53626;51.224;-0.164;2022-08-11T03:41:20;101481.25;;;23.96;44.86
57943;BME280;53626;51.224;-0.164;2022-08-11T03:44:03;101481.41;;;24.16;44.87
57943;BME280;53626;51.224;-0.164;2022-08-11T03:46:43;101480.28;;;24.17;44.86
57943;BME280;53626;51.224;-0.164;2022-08-11T03:49:28;101479.69;;;24.19;44.85
57943;BME280;53626;51.224;-0.164;2022-08-11T03:52:07;101477.15;;;24.18;44.89
57943;BME280;53626;51.224;-0.164;2022-08-11T03:54:44;101473.72;;;24.16;44.93
57943;BME280;53626;51.224;-0.164;2022-08-11T03:57:48;101474.98;;;24.19;44.92
57943;BME280;53626;51.224;-0.164;2022-08-11T04:00:37;101473.58;;;24.02;44.78
57943;BME280;53626;51.224;-0.164;2022-08-11T04:03:24;101473.21;;;23.97;44.86
57943;BME280;53626;51.224;-0.164;2022-08-11T04:06:44;101471.82;;;23.97;44.88
57943;BME280;53626;51.224;-0.164;2022-08-11T04:12:18;101473.82;;;24.15;44.98
57943;BME280;53626;51.224;-0.164;2022-08-11T04:15:16;101471.64;;;24.20;44.94
57943;BME280;53626;51.224;-0.164;2022-08-11T04:23:47;101471.09;;;24.26;45.17
57943;BME280;53626;51.224;-0.164;2022-08-11T04:27:14;101468.15;;;23.97;44.93
57943;BME280;53626;51.224;-0.164;2022-08-11T04:29:57;101467.43;;;23.95;44.99
57943;BME280;53626;51.224;-0.164;2022-08-11T04:32:49;101468.56;;;24.15;44.99
57943;BME280;53626;51.224;-0.164;2022-08-11T04:35:33;101469.12;;;23.96;44.93
57943;BME280;53626;51.224;-0.164;2022-08-11T04:38:15;101464.22;;;23.92;45.01
57943;BME280;53626;51.224;-0.164;2022-08-11T04:41:12;101465.36;;;23.95;44.98
57943;BME280;53626;51.224;-0.164;2022-08-11T04:44:16;101465.60;;;24.19;44.98
57943;BME280;53626;51.224;-0.164;2022-08-11T04:47:13;101458.59;;;24.38;45.02
57943;BME280;53626;51.224;-0.164;2022-08-11T04:50:21;101459.56;;;23.97;45.00
57943;BME280;53626;51.224;-0.164;2022-08-11T04:53:09;101458.60;;;24.23;44.89
57943;BME280;53626;51.224;-0.164;2022-08-11T04:55:56;101460.58;;;24.00;44.94
57943;BME280;53626;51.224;-0.164;2022-08-11T04:58:43;101461.27;;;24.13;44.73
57943;BME280;53626;51.224;-0.164;2022-08-11T05:01:26;101459.38;;;24.07;44.80
57943;BME280;53626;51.224;-0.164;2022-08-11T05:05:18;101458.77;;;23.76;44.92
57943;BME280;53626;51.224;-0.164;2022-08-11T05:08:16;101459.61;;;24.07;44.84
57943;BME280;53626;51.224;-0.164;2022-08-11T05:11:09;101460.58;;;24.04;44.89
57943;BME280;53626;51.224;-0.164;2022-08-11T05:13:44;101460.55;;;24.05;44.88
57943;BME280;53626;51.224;-0.164;2022-08-11T05:16:16;101461.67;;;23.98;44.98
57943;BME280;53626;51.224;-0.164;2022-08-11T05:18:47;101463.50;;;24.25;44.93
57943;BME280;53626;51.224;-0.164;2022-08-11T05:21:16;101464.03;;;24.20;45.01
57943;BME280;53626;51.224;-0.164;2022-08-11T05:23:50;101463.90;;;24.15;45.09
57943;BME280;53626;51.224;-0.164;2022-08-11T05:26:20;101462.42;;;24.06;44.93
57943;BME280;53626;51.224;-0.164;2022-08-11T05:28:53;101462.57;;;24.06;44.90
57943;BME280;53626;51.224;-0.164;2022-08-11T05:31:25;101465.16;;;24.21;45.01
57943;BME280;53626;51.224;-0.164;2022-08-11T05:34:00;101466.65;;;24.17;45.08
57943;BME280;53626;51.224;-0.164;2022-08-11T05:36:36;101469.27;;;23.91;45.12
57943;BME280;53626;51.224;-0.164;2022-08-11T05:39:13;101472.19;;;23.94;45.13
57943;BME280;53626;51.224;-0.164;2022-08-11T05:41:41;101476.02;;;23.90;45.14
57943;BME280;53626;51.224;-0.164;2022-08-11T05:44:09;101477.11;;;24.34;45.19
57943;BME280;53626;51.224;-0.164;2022-08-11T05:46:43;101474.11;;;23.87;45.22
57943;BME280;53626;51.224;-0.164;2022-08-11T05:49:12;101476.76;;;23.89;45.22
57943;BME280;53626;51.224;-0.164;2022-08-11T05:51:42;101477.90;;;24.11;45.20
57943;BME280;53626;51.224;-0.164;2022-08-11T05:54:14;101477.95;;;23.88;45.23
57943;BME280;53626;51.224;-0.164;2022-08-11T05:56:46;101477.08;;;23.85;45.25
57943;BME280;53626;51.224;-0.164;2022-08-11T05:59:16;101481.58;;;23.94;45.15
57943;BME280;53626;51.224;-0.164;2022-08-11T06:01:45;101477.58;;;23.88;45.24
57943;BME280;53626;51.224;-0.164;2022-08-11T06:04:18;101475.88;;;23.86;45.26
57943;BME280;53626;51.224;-0.164;2022-08-11T06:06:50;101477.95;;;23.88;45.24
57943;BME280;53626;51.224;-0.164;2022-08-11T06:09:25;101477.24;;;23.89;45.22
57943;BME280;53626;51.224;-0.164;2022-08-11T06:11:56;101478.34;;;24.14;45.22
57943;BME280;53626;51.224;-0.164;2022-08-11T06:14:25;101476.94;;;23.89;45.26
57943;BME280;53626;51.224;-0.164;2022-08-11T06:16:56;101477.16;;;23.87;45.28
57943;BME280;53626;51.224;-0.164;2022-08-11T06:19:32;101478.26;;;23.91;45.21
57943;BME280;53626;51.224;-0.164;2022-08-11T06:22:01;101478.04;;;23.87;45.27
57943;BME280;53626;51.224;-0.164;2022-08-11T06:24:29;101476.93;;;23.87;45.29
57943;BME280;53626;51.224;-0.164;2022-08-11T06:26:59;101475.12;;;24.09;45.29
57943;BME280;53626;51.224;-0.164;2022-08-11T06:29:27;101477.08;;;24.08;45.28
57943;BME280;53626;51.224;-0.164;2022-08-11T06:31:57;101476.43;;;24.07;45.30
57943;BME280;53626;51.224;-0.164;2022-08-11T06:34:36;101478.96;;;23.85;45.33
57943;BME280;53626;51.224;-0.164;2022-08-11T06:37:18;101479.55;;;24.32;45.29
57943;BME280;53626;51.224;-0.164;2022-08-11T06:39:51;101476.83;;;23.90;45.25
57943;BME280;53626;51.224;-0.164;2022-08-11T06:42:35;101472.40;;;23.89;45.26
57943;BME280;53626;51.224;-0.164;2022-08-11T06:45:13;101469.65;;;24.14;45.22
57943;BME280;53626;51.224;-0.164;2022-08-11T06:47:44;101468.78;;;24.10;45.28
57943;BME280;53626;51.224;-0.164;2022-08-11T06:50:15;101464.63;;;23.58;45.30
57943;BME280;53626;51.224;-0.164;2022-08-11T06:52:44;101464.05;;;23.59;45.29
57943;BME280;53626;51.224;-0.164;2022-08-11T06:55:20;101468.16;;;24.35;45.25
57943;BME280;53626;51.224;-0.164;2022-08-11T06:57:47;101468.31;;;23.90;45.27
57943;BME280;53626;51.224;-0.164;2022-08-11T07:00:16;101467.85;;;23.89;45.25
57943;BME280;53626;51.224;-0.164;2022-08-11T07:02:47;101468.89;;;24.12;45.24
57943;BME280;53626;51.224;-0.164;2022-08-11T07:05:20;101470.76;;;24.12;45.24
57943;BME280;53626;51.224;-0.164;2022-08-11T07:08:14;101471.59;;;24.11;45.25
57943;BME280;53626;51.224;-0.164;2022-08-11T07:10:56;101474.47;;;23.92;45.22
57943;BME280;53626;51.224;-0.164;2022-08-11T07:13:27;101477.49;;;23.93;45.17
57943;BME280;53626;51.224;-0.164;2022-08-11T07:15:57;101476.28;;;24.12;45.24
57943;BME280;53626;51.224;-0.164;2022-08-11T07:18:27;101473.89;;;23.93;45.19
57943;BME280;53626;51.224;-0.164;2022-08-11T07:21:13;101475.18;;;23.93;45.18
57943;BME280;53626;51.224;-0.164;2022-08-11T07:23:41;101477.19;;;23.91;45.20
57943;BME280;53626;51.224;-0.164;2022-08-11T07:26:10;101480.63;;;23.90;45.22
57943;BME280;53626;51.224;-0.164;2022-08-11T07:28:41;101479.50;;;24.33;45.21
57943;BME280;53626;51.224;-0.164;2022-08-11T07:31:16;101481.52;;;23.92;45.16
57943;BME280;53626;51.224;-0.164;2022-08-11T07:33:49;101480.52;;;23.92;45.14
57943;BME280;53626;51.224;-0.164;2022-08-11T07:36:18;101479.82;;;24.13;45.16
57943;BME280;53626;51.224;-0.164;2022-08-11T07:38:50;101481.15;;;24.11;45.18
57943;BME280;53626;51.224;-0.164;2022-08-11T07:41:21;101483.37;;;24.35;45.17
57943;BME280;53626;51.224;-0.164;2022-08-11T07:43:52;101480.60;;;23.91;45.16
57943;BME280;53626;51.224;-0.164;2022-08-11T07:46:21;101480.60;;;24.10;45.20
57943;BME280;53626;51.224;-0.164;2022-08-11T07:48:49;101482.08;;;24.11;45.25
57943;BME280;53626;51.224;-0.164;2022-08-11T07:51:18;101483.49;;;24.34;45.32
57943;BME280;53626;51.224;-0.164;2022-08-11T07:53:46;101477.27;;;24.09;45.33
57943;BME280;53626;51.224;-0.164;2022-08-11T07:56:15;101478.10;;;23.91;45.33
57943;BME280;53626;51.224;-0.164;2022-08-11T07:58:43;101478.56;;;23.96;45.22
57943;BME280;53626;51.224;-0.164;2022-08-11T08:01:12;101478.08;;;23.94;45.22
57943;BME280;53626;51.224;-0.164;2022-08-11T08:03:45;101480.10;;;23.92;45.26
57943;BME280;53626;51.224;-0.164;2022-08-11T08:06:12;101479.18;;;23.93;45.26
57943;BME280;53626;51.224;-0.164;2022-08-11T08:08:40;101477.52;;;23.94;45.23
57943;BME280;53626;51.224;-0.164;2022-08-11T08:11:08;101480.30;;;24.17;45.21
57943;BME280;53626;51.224;-0.164;2022-08-11T08:13:37;101480.04;;;23.93;45.28
57943;BME280;53626;51.224;-0.164;2022-08-11T08:16:05;101481.86;;;24.13;45.30
57943;BME280;53626;51.224;-0.164;2022-08-11T08:18:33;101480.95;;;23.98;45.20
57943;BME280;53626;51.224;-0.164;2022-08-11T08:21:04;101481.54;;;24.19;45.22
57943;BME280;53626;51.224;-0.164;2022-08-11T08:23:31;101480.14;;;23.96;45.23
57943;BME280;53626;51.224;-0.164;2022-08-11T08:26:01;101477.50;;;24.17;45.25
57943;BME280;53626;51.224;-0.164;2022-08-11T08:28:30;101477.93;;;24.41;45.24
57943;BME280;53626;51.224;-0.164;2022-08-11T08:30:59;101474.65;;;23.94;45.28
57943;BME280;53626;51.224;-0.164;2022-08-11T08:33:29;101473.26;;;23.96;45.26
57943;BME280;53626;51.224;-0.164;2022-08-11T08:36:00;101473.15;;;23.98;45.24
57943;BME280;53626;51.224;-0.164;2022-08-11T08:38:28;101469.22;;;24.09;45.07
57943;BME280;53626;51.224;-0.164;2022-08-11T08:40:55;101470.47;;;24.04;45.17
57943;BME280;53626;51.224;-0.164;2022-08-11T08:43:23;101471.76;;;24.00;45.21
57943;BME280;53626;51.224;-0.164;2022-08-11T08:45:54;101474.01;;;23.97;45.25
57943;BME280;53626;51.224;-0.164;2022-08-11T08:48:25;101477.24;;;24.20;45.26
57943;BME280;53626;51.224;-0.164;2022-08-11T08:51:01;101475.77;;;23.98;45.24
57943;BME280;53626;51.224;-0.164;2022-08-11T08:53:34;101476.96;;;23.98;45.25
57943;BME280;53626;51.224;-0.164;2022-08-11T08:56:02;101472.13;;;24.22;45.20
57943;BME280;53626;51.224;-0.164;2022-08-11T08:58:36;101474.63;;;24.23;45.20
57943;BME280;53626;51.224;-0.164;2022-08-11T09:01:06;101469.21;;;24.21;45.21
57943;BME280;53626;51.224;-0.164;2022-08-11T09:03:36;101470.25;;;24.21;45.21
57943;BME280;53626;51.224;-0.164;2022-08-11T09:06:04;101468.47;;;24.23;45.17
57943;BME280;53626;51.224;-0.164;2022-08-11T09:08:33;101467.37;;;23.99;45.21
57943;BME280;53626;51.224;-0.164;2022-08-11T09:11:02;101466.68;;;24.23;45.21
57943;BME280;53626;51.224;-0.164;2022-08-11T09:13:32;101463.16;;;24.00;45.22
57943;BME280;53626;51.224;-0.164;2022-08-11T09:16:01;101462.82;;;23.99;45.26
57943;BME280;53626;51.224;-0.164;2022-08-11T09:18:29;101463.31;;;24.04;45.20
57943;BME280;53626;51.224;-0.164;2022-08-11T09:20:56;101463.31;;;24.23;45.23
57943;BME280;53626;51.224;-0.164;2022-08-11T09:23:25;101457.84;;;24.05;45.19
57943;BME280;53626;51.224;-0.164;2022-08-11T09:25:56;101454.49;;;24.05;45.19
57943;BME280;53626;51.224;-0.164;2022-08-11T09:28:24;101451.15;;;24.25;45.19
57943;BME280;53626;51.224;-0.164;2022-08-11T09:30:55;101452.20;;;24.03;45.20
57943;BME280;53626;51.224;-0.164;2022-08-11T09:33:24;101448.59;;;24.03;45.19
57943;BME280;53626;51.224;-0.164;2022-08-11T09:35:51;101452.50;;;24.03;45.21
57943;BME280;53626;51.224;-0.164;2022-08-11T09:38:21;101452.96;;;24.24;45.21
57943;BME280;53626;51.224;-0.164;2022-08-11T09:40:50;101445.45;;;24.04;45.20
57943;BME280;53626;51.224;-0.164;2022-08-11T09:43:19;101443.22;;;24.27;45.19
57943;BME280;53626;51.224;-0.164;2022-08-11T09:45:48;101439.93;;;24.04;45.20
57943;BME280;53626;51.224;-0.164;2022-08-11T09:48:18;101438.12;;;24.04;45.20
57943;BME280;53626;51.224;-0.164;2022-08-11T09:50:49;101437.22;;;24.03;45.17
57943;BME280;53626;51.224;-0.164;2022-08-11T09:53:19;101436.84;;;24.52;45.13
57943;BME280;53626;51.224;-0.164;2022-08-11T09:55:48;101431.01;;;24.07;45.13
57943;BME280;53626;51.224;-0.164;2022-08-11T09:58:16;101434.24;;;24.09;45.09
57943;BME280;53626;51.224;-0.164;2022-08-11T10:00:46;101432.40;;;24.34;45.05
57943;BME280;53626;51.224;-0.164;2022-08-11T10:03:17;101425.85;;;24.09;45.09
57943;BME280;53626;51.224;-0.164;2022-08-11T10:05:46;101421.91;;;24.09;45.09
57943;BME280;53626;51.224;-0.164;2022-08-11T10:08:17;101418.31;;;24.10;45.08
57943;BME280;53626;51.224;-0.164;2022-08-11T10:10:45;101418.03;;;24.11;45.04
57943;BME280;53626;51.224;-0.164;2022-08-11T10:13:16;101418.58;;;24.09;45.07
57943;BME280;53626;51.224;-0.164;2022-08-11T10:15:45;101419.56;;;24.11;45.06
57943;BME280;53626;51.224;-0.164;2022-08-11T10:18:15;101414.35;;;24.13;45.03
57943;BME280;53626;51.224;-0.164;2022-08-11T10:20:44;101410.01;;;24.16;44.95
57943;BME280;53626;51.224;-0.164;2022-08-11T10:23:13;101418.11;;;23.88;44.97
57943;BME280;53626;51.224;-0.164;2022-08-11T10:25:41;101418.00;;;24.15;44.99
57943;BME280;53626;51.224;-0.164;2022-08-11T10:28:09;101419.51;;;24.15;44.98
57943;BME280;53626;51.224;-0.164;2022-08-11T10:30:37;101414.32;;;24.14;45.01
57943;BME280;53626;51.224;-0.164;2022-08-11T10:33:05;101408.88;;;24.56;45.03
57943;BME280;53626;51.224;-0.164;2022-08-11T10:35:33;101410.78;;;24.13;45.01
57943;BME280;53626;51.224;-0.164;2022-08-11T10:38:01;101412.96;;;24.17;44.96
57943;BME280;53626;51.224;-0.164;2022-08-11T10:40:29;101417.31;;;24.15;45.00
57943;BME280;53626;51.224;-0.164;2022-08-11T10:42:59;101414.93;;;24.14;45.02
57943;BME280;53626;51.224;-0.164;2022-08-11T10:45:28;101408.71;;;24.34;45.03
57943;BME280;53626;51.224;-0.164;2022-08-11T10:47:57;101405.15;;;24.15;44.98
57943;BME280;53626;51.224;-0.164;2022-08-11T10:50:25;101404.07;;;24.17;44.97
57943;BME280;53626;51.224;-0.164;2022-08-11T10:52:54;101401.94;;;24.16;45.00
57943;BME280;53626;51.224;-0.164;2022-08-11T10:55:23;101406.91;;;24.39;44.97
57943;BME280;53626;51.224;-0.164;2022-08-11T10:57:50;101402.71;;;24.20;44.92
57943;BME280;53626;51.224;-0.164;2022-08-11T11:00:18;101411.47;;;24.68;44.88
57943;BME280;53626;51.224;-0.164;2022-08-11T11:02:45;101406.86;;;24.21;44.92
57943;BME280;53626;51.224;-0.164;2022-08-11T11:05:26;101411.59;;;24.20;44.93
57943;BME280;53626;51.224;-0.164;2022-08-11T11:08:00;101407.72;;;24.21;44.92
57943;BME280;53626;51.224;-0.164;2022-08-11T11:10:33;101399.27;;;24.19;44.91
57943;BME280;53626;51.224;-0.164;2022-08-11T11:13:00;101396.66;;;24.19;44.92
57943;BME280;53626;51.224;-0.164;2022-08-11T11:15:29;101405.80;;;24.25;44.87
57943;BME280;53626;51.224;-0.164;2022-08-11T11:18:02;101400.68;;;24.02;44.81
57943;BME280;53626;51.224;-0.164;2022-08-11T11:20:35;101395.21;;;24.26;44.82
57943;BME280;53626;51.224;-0.164;2022-08-11T11:23:09;101392.08;;;24.25;44.87
57943;BME280;53626;51.224;-0.164;2022-08-11T11:26:01;101397.48;;;24.25;44.84
57943;BME280;53626;51.224;-0.164;2022-08-11T11:28:48;101393.96;;;24.25;44.85
57943;BME280;53626;51.224;-0.164;2022-08-11T11:31:29;101390.58;;;24.26;44.85
57943;BME280;53626;51.224;-0.164;2022-08-11T11:34:12;101391.45;;;24.29;44.80
57943;BME280;53626;51.224;-0.164;2022-08-11T11:36:45;101395.72;;;24.32;44.75
57943;BME280;53626;51.224;-0.164;2022-08-11T11:39:16;101394.20;;;24.30;44.81
57943;BME280;53626;51.224;-0.164;2022-08-11T11:41:44;101387.44;;;24.29;44.83
57943;BME280;53626;51.224;-0.164;2022-08-11T11:44:13;101385.44;;;24.30;44.80
57943;BME280;53626;51.224;-0.164;2022-08-11T11:46:41;101387.36;;;24.28;44.84
57943;BME280;53626;51.224;-0.164;2022-08-11T11:49:13;101388.52;;;24.28;44.84
57943;BME280;53626;51.224;-0.164;2022-08-11T11:51:40;101386.07;;;24.32;44.81
57943;BME280;53626;51.224;-0.164;2022-08-11T11:54:09;101384.65;;;24.52;44.81
57943;BME280;53626;51.224;-0.164;2022-08-11T11:56:38;101384.20;;;24.29;44.83
57943;BME280;53626;51.224;-0.164;2022-08-11T11:59:06;101381.53;;;24.31;44.81
57943;BME280;53626;51.224;-0.164;2022-08-11T12:01:33;101382.22;;;24.34;44.77
57943;BME280;53626;51.224;-0.164;2022-08-11T12:04:02;101377.25;;;24.76;44.78
57943;BME280;53626;51.224;-0.164;2022-08-11T12:06:31;101378.75;;;24.33;44.79
57943;BME280;53626;51.224;-0.164;2022-08-11T12:08:59;101368.95;;;24.32;44.81
57943;BME280;53626;51.224;-0.164;2022-08-11T12:11:28;101372.60;;;24.32;44.83
57943;BME280;53626;51.224;-0.164;2022-08-11T12:13:59;101370.07;;;24.32;44.82
57943;BME280;53626;51.224;-0.164;2022-08-11T12:16:28;101364.51;;;24.34;44.81
57943;BME280;53626;51.224;-0.164;2022-08-11T12:18:59;101361.36;;;24.40;44.74
57943;BME280;53626;51.224;-0.164;2022-08-11T12:21:27;101349.92;;;24.39;44.74
57943;BME280;53626;51.224;-0.164;2022-08-11T12:23:58;101347.14;;;24.36;44.76
57943;BME280;53626;51.224;-0.164;2022-08-11T12:26:27;101348.49;;;24.34;44.80
57943;BME280;53626;51.224;-0.164;2022-08-11T12:28:55;101343.18;;;24.36;44.80
57943;BME280;53626;51.224;-0.164;2022-08-11T12:31:23;101347.84;;;24.37;44.82
57943;BME280;53626;51.224;-0.164;2022-08-11T12:33:51;101334.49;;;24.36;44.83
57943;BME280;53626;51.224;-0.164;2022-08-11T12:36:19;101333.61;;;24.36;44.82
57943;BME280;53626;51.224;-0.164;2022-08-11T12:38:49;101334.47;;;24.37;44.81
57943;BME280;53626;51.224;-0.164;2022-08-11T12:41:18;101339.78;;;24.40;44.79
57943;BME280;53626;51.224;-0.164;2022-08-11T12:43:47;101332.33;;;24.38;44.82
57943;BME280;53626;51.224;-0.164;2022-08-11T12:46:19;101331.40;;;24.41;44.78
57943;BME280;53626;51.224;-0.164;2022-08-11T12:48:52;101326.34;;;24.43;44.74
57943;BME280;53626;51.224;-0.164;2022-08-11T12:51:24;101321.23;;;24.44;44.72
57943;BME280;53626;51.224;-0.164;2022-08-11T12:53:55;101327.70;;;24.41;44.79
57943;BME280;53626;51.224;-0.164;2022-08-11T12:56:28;101317.85;;;24.43;44.78
57943;BME280;53626;51.224;-0.164;2022-08-11T12:59:00;101320.14;;;24.48;44.69
57943;BME280;53626;51.224;-0.164;2022-08-11T13:01:28;101313.37;;;24.43;44.74
57943;BME280;53626;51.224;-0.164;2022-08-11T13:03:57;101316.13;;;24.45;44.75
57943;BME280;53626;51.224;-0.164;2022-08-11T13:06:24;101311.22;;;24.44;44.77
57943;BME280;53626;51.224;-0.164;2022-08-11T13:08:53;101306.62;;;24.45;44.77
57943;BME280;53626;51.224;-0.164;2022-08-11T13:11:21;101310.91;;;24.18;44.77
57943;BME280;53626;51.224;-0.164;2022-08-11T13:13:50;101306.94;;;24.46;44.76
57943;BME280;53626;51.224;-0.164;2022-08-11T13:16:21;101303.85;;;24.49;44.70
57943;BME280;53626;51.224;-0.164;2022-08-11T13:18:48;101309.49;;;24.54;44.63
57943;BME280;53626;51.224;-0.164;2022-08-11T13:21:17;101303.67;;;24.52;44.66
57943;BME280;53626;51.224;-0.164;2022-08-11T13:23:44;101304.65;;;24.48;44.72
57943;BME280;53626;51.224;-0.164;2022-08-11T13:26:13;101302.34;;;24.49;44.74
57943;BME280;53626;51.224;-0.164;2022-08-11T13:28:40;101299.15;;;24.48;44.75
57943;BME280;53626;51.224;-0.164;2022-08-11T13:31:09;101300.61;;;24.49;44.76
57943;BME280;53626;51.224;-0.164;2022-08-11T13:33:40;101291.47;;;24.72;44.75
57943;BME280;53626;51.224;-0.164;2022-08-11T13:36:10;101297.66;;;24.75;44.70
57943;BME280;53626;51.224;-0.164;2022-08-11T13:38:40;101291.03;;;24.51;44.74
57943;BME280;53626;51.224;-0.164;2022-08-11T13:41:09;101290.70;;;24.52;44.74